Carnation, Washington
Current Conditions -  °F | °C
As of 7:53 AM on Thursday 27 Nov 2014 (Local Time) from KRNT Reporting Station
Light Rain Light Rain  
Wind Chill: 57°   Ceiling: 2700
Heat Index: 57°   Visibility: 10mi
Dew Point: 50°   Wind: 12mph
Humidity: 77%   Direction: 170°S
Pressure: 29.85"   Gusts: NA
Location:  47.65°N, 121.91°W
Report Text: KRNT 271553Z 17010KT 10SM -RA OVC027 14/10 A2985 RMK AO2 RAE10B43 SLP114 P0000 T01390100
Loading
Personal Weather Stations






























Interactive Weather Map New forecast layout! Learn more

10-Day Weather Forecast

Advertisements
Track Severe Weather on mobile